Ana Sayfa
METAR-TAF:

METAR-TAF

Havaalanları :

Priştine Uluslararası Havalimanı

Priştine, Kosova

Enlem: 42-34-27N, Boylam: 21-02-09E, yükseklik: 545 m

Güncel hava durumu gözlemi

Rapor saat 09:30 UTC de 27 dakika önce yapıldı.
Rüzgar kuzeydan 4 kt, kuzeybatı ve kuzey/kuzeydoğu arasında değişken
Sıcaklık 10°C
Nem 46%
Basınç 1013 hPa
Görüş mesafesi 10 km veya daha fazla
4000 ft yükseklikte parçalı bulutlu
8000 ft yükseklikte parçalı çok bulutlu

METAR: BKPR 280930Z 35004KT 310V030 9999 SCT040 BKN080 10/M01 Q1013 NOSIG RMK 17190095

Saat: 10:57 (09:57 UTC)

Tahmin

Rapor saat 05:30 UTC de 4 saat ve 27 dakika önce yapıldı.
Ayın 28'si saat 06 UTC'den ayın 29'si saat 06 UTC'ye kadar geçerli Tahmin
Rüzgar kuzeydan 7 kt
3000 ft yükseklikte parçalı bulutlu
6000 ft yükseklikte parçalı çok bulutlu
Geçici
ayın 28'si saat 06 UTC'den ayın 28'si saat 14 UTC'ye kadar
Görüş mesafesi: 5000 m
hafif yağmur, Pus

TAF: BKPR 280530Z 2806/2906 01007KT SCT030 BKN060 TEMPO 2806/2814 5000 -RA BR

4.000'den fazla havaalanı için hava durumu gözlemleri ve tahminleri (METAR ve TAF raporları).

Kullanılabilir istasyonlar harita üzerinde sarı ve kırmızı noktalarla gösterilir.

İstasyonun adını görmek için fareyi noktanın üzerinde gezdirin.

Sonrasında hava gözlem ve tahminlerini görmek için tıklayın.

Haritayı değiştirmek için: yaklaştırmak için siyah artı işaretli yeşil düğmeye ve uzaklaştırmak için de eksi işaretli düğmeye hızla tıklayın; bitişik haritalar için yeşil okları kullanın.


METAR-TAF: